sensor_id;sensor_type;location;lat;lon;timestamp;pressure;altitude;pressure_sealevel;temperature;humidity
26807;BME280;14380;49.910;6.792;2023-04-10T00:02:26;99399.78;;;4.87;100.00
26807;BME280;14380;49.910;6.792;2023-04-10T00:04:52;99399.06;;;4.82;100.00
26807;BME280;14380;49.910;6.792;2023-04-10T00:07:19;99390.25;;;4.85;100.00
26807;BME280;14380;49.910;6.792;2023-04-10T00:09:45;99392.66;;;4.53;100.00
26807;BME280;14380;49.910;6.792;2023-04-10T00:12:12;99397.53;;;4.72;100.00
26807;BME280;14380;49.910;6.792;2023-04-10T00:14:40;99396.88;;;4.60;100.00
26807;BME280;14380;49.910;6.792;2023-04-10T00:17:06;99385.97;;;4.40;100.00
26807;BME280;14380;49.910;6.792;2023-04-10T00:19:33;99391.94;;;4.46;100.00
26807;BME280;14380;49.910;6.792;2023-04-10T00:21:59;99386.91;;;4.36;100.00
26807;BME280;14380;49.910;6.792;2023-04-10T00:24:26;99388.41;;;4.47;100.00
26807;BME280;14380;49.910;6.792;2023-04-10T00:26:52;99383.91;;;4.54;100.00
26807;BME280;14380;49.910;6.792;2023-04-10T00:29:21;99388.13;;;4.61;100.00
26807;BME280;14380;49.910;6.792;2023-04-10T00:31:48;99387.19;;;4.64;100.00
26807;BME280;14380;49.910;6.792;2023-04-10T00:34:15;99388.13;;;4.61;100.00
26807;BME280;14380;49.910;6.792;2023-04-10T00:36:41;99387.00;;;4.73;100.00
26807;BME280;14380;49.910;6.792;2023-04-10T00:39:08;99387.19;;;4.66;100.00
26807;BME280;14380;49.910;6.792;2023-04-10T00:41:35;99384.63;;;4.63;100.00
26807;BME280;14380;49.910;6.792;2023-04-10T00:44:01;99380.34;;;4.60;100.00
26807;BME280;14380;49.910;6.792;2023-04-10T00:46:28;99388.41;;;4.47;100.00
26807;BME280;14380;49.910;6.792;2023-04-10T00:48:57;99380.41;;;4.55;100.00
26807;BME280;14380;49.910;6.792;2023-04-10T00:51:23;99377.84;;;4.54;100.00
26807;BME280;14380;49.910;6.792;2023-04-10T00:53:51;99379.19;;;4.29;100.00
26807;BME280;14380;49.910;6.792;2023-04-10T00:56:19;99373.50;;;4.53;100.00
26807;BME280;14380;49.910;6.792;2023-04-10T00:58:46;99375.31;;;4.49;100.00
26807;BME280;14380;49.910;6.792;2023-04-10T01:01:12;99369.19;;;4.50;100.00
26807;BME280;14380;49.910;6.792;2023-04-10T01:03:40;99372.06;;;4.38;100.00
26807;BME280;14380;49.910;6.792;2023-04-10T01:06:15;99367.63;;;4.41;100.00
26807;BME280;14380;49.910;6.792;2023-04-10T01:08:50;99363.03;;;4.53;100.00
26807;BME280;14380;49.910;6.792;2023-04-10T01:11:29;99358.78;;;4.47;100.00
26807;BME280;14380;49.910;6.792;2023-04-10T01:14:06;99356.09;;;4.50;100.00
26807;BME280;14380;49.910;6.792;2023-04-10T01:16:42;99357.81;;;4.53;100.00
26807;BME280;14380;49.910;6.792;2023-04-10T01:19:19;99354.66;;;4.37;100.00
26807;BME280;14380;49.910;6.792;2023-04-10T01:21:52;99346.00;;;4.35;100.00
26807;BME280;14380;49.910;6.792;2023-04-10T01:24:26;99349.50;;;4.34;100.00
26807;BME280;14380;49.910;6.792;2023-04-10T01:27:09;99348.53;;;4.38;100.00
26807;BME280;14380;49.910;6.792;2023-04-10T01:29:41;99353.59;;;4.45;100.00
26807;BME280;14380;49.910;6.792;2023-04-10T01:32:13;99346.00;;;4.33;100.00
26807;BME280;14380;49.910;6.792;2023-04-10T01:34:43;99339.06;;;4.32;100.00
26807;BME280;14380;49.910;6.792;2023-04-10T01:37:12;99326.78;;;4.36;100.00
26807;BME280;14380;49.910;6.792;2023-04-10T01:39:41;99321.09;;;4.15;100.00
26807;BME280;14380;49.910;6.792;2023-04-10T01:42:10;99328.22;;;4.08;100.00
26807;BME280;14380;49.910;6.792;2023-04-10T01:44:43;99323.88;;;4.07;100.00
26807;BME280;14380;49.910;6.792;2023-04-10T01:47:13;99316.09;;;4.02;100.00
26807;BME280;14380;49.910;6.792;2023-04-10T01:49:43;99302.47;;;3.86;100.00
26807;BME280;14380;49.910;6.792;2023-04-10T01:52:10;99306.94;;;3.81;100.00
26807;BME280;14380;49.910;6.792;2023-04-10T01:54:37;99304.13;;;3.92;100.00
26807;BME280;14380;49.910;6.792;2023-04-10T01:57:04;99307.84;;;3.79;100.00
26807;BME280;14380;49.910;6.792;2023-04-10T01:59:30;99308.66;;;3.82;100.00
26807;BME280;14380;49.910;6.792;2023-04-10T02:01:59;99299.34;;;3.69;100.00
26807;BME280;14380;49.910;6.792;2023-04-10T02:04:26;99287.13;;;3.71;100.00
26807;BME280;14380;49.910;6.792;2023-04-10T02:07:01;99283.56;;;3.74;100.00
26807;BME280;14380;49.910;6.792;2023-04-10T02:09:37;99278.34;;;3.75;100.00
26807;BME280;14380;49.910;6.792;2023-04-10T02:12:08;99269.41;;;3.85;100.00
26807;BME280;14380;49.910;6.792;2023-04-10T02:14:37;99274.19;;;3.65;100.00
26807;BME280;14380;49.910;6.792;2023-04-10T02:17:08;99278.97;;;3.88;100.00
26807;BME280;14380;49.910;6.792;2023-04-10T02:19:38;99282.47;;;3.85;100.00
26807;BME280;14380;49.910;6.792;2023-04-10T02:22:05;99278.47;;;3.67;100.00
26807;BME280;14380;49.910;6.792;2023-04-10T02:24:33;99272.00;;;3.87;100.00
26807;BME280;14380;49.910;6.792;2023-04-10T02:27:00;99267.41;;;3.98;100.00
26807;BME280;14380;49.910;6.792;2023-04-10T02:29:26;99266.44;;;3.59;100.00
26807;BME280;14380;49.910;6.792;2023-04-10T02:31:53;99273.25;;;3.67;100.00
26807;BME280;14380;49.910;6.792;2023-04-10T02:34:21;99281.19;;;3.63;100.00
26807;BME280;14380;49.910;6.792;2023-04-10T02:36:47;99278.84;;;3.47;100.00
26807;BME280;14380;49.910;6.792;2023-04-10T02:39:14;99276.25;;;3.46;100.00
26807;BME280;14380;49.910;6.792;2023-04-10T02:41:40;99276.31;;;3.41;100.00
26807;BME280;14380;49.910;6.792;2023-04-10T02:44:07;99275.06;;;3.64;100.00
26807;BME280;14380;49.910;6.792;2023-04-10T02:46:33;99277.03;;;3.98;100.00
26807;BME280;14380;49.910;6.792;2023-04-10T02:49:00;99272.69;;;3.97;100.00
26807;BME280;14380;49.910;6.792;2023-04-10T02:51:27;99272.28;;;3.73;100.00
26807;BME280;14380;49.910;6.792;2023-04-10T02:53:55;99279.97;;;3.81;100.00
26807;BME280;14380;49.910;6.792;2023-04-10T02:56:21;99280.75;;;3.86;100.00
26807;BME280;14380;49.910;6.792;2023-04-10T02:58:48;99277.06;;;3.95;100.00
26807;BME280;14380;49.910;6.792;2023-04-10T03:01:14;99278.00;;;3.92;100.00
26807;BME280;14380;49.910;6.792;2023-04-10T03:03:41;99278.13;;;3.86;100.00
26807;BME280;14380;49.910;6.792;2023-04-10T03:06:08;99279.81;;;3.89;100.00
26807;BME280;14380;49.910;6.792;2023-04-10T03:08:36;99277.06;;;3.95;100.00
26807;BME280;14380;49.910;6.792;2023-04-10T03:11:02;99278.06;;;3.89;100.00
26807;BME280;14380;49.910;6.792;2023-04-10T03:13:29;99278.84;;;3.93;100.00
26807;BME280;14380;49.910;6.792;2023-04-10T03:15:56;99286.69;;;3.94;100.00
26807;BME280;14380;49.910;6.792;2023-04-10T03:18:22;99278.69;;;4.02;100.00
26807;BME280;14380;49.910;6.792;2023-04-10T03:20:49;99276.97;;;3.99;100.00
26807;BME280;14380;49.910;6.792;2023-04-10T03:23:15;99264.72;;;4.03;100.00
26807;BME280;14380;49.910;6.792;2023-04-10T03:25:43;99267.75;;;3.81;100.00
26807;BME280;14380;49.910;6.792;2023-04-10T03:28:10;99262.66;;;3.75;100.00
26807;BME280;14380;49.910;6.792;2023-04-10T03:30:36;99257.13;;;3.45;100.00
26807;BME280;14380;49.910;6.792;2023-04-10T03:33:03;99256.69;;;3.21;100.00
26807;BME280;14380;49.910;6.792;2023-04-10T03:35:30;99252.19;;;3.28;100.00
26807;BME280;14380;49.910;6.792;2023-04-10T03:37:56;99252.41;;;3.16;100.00
26807;BME280;14380;49.910;6.792;2023-04-10T03:40:23;99251.13;;;3.40;100.00
26807;BME280;14380;49.910;6.792;2023-04-10T03:42:50;99242.81;;;3.18;100.00
26807;BME280;14380;49.910;6.792;2023-04-10T03:45:17;99250.66;;;3.16;100.00
26807;BME280;14380;49.910;6.792;2023-04-10T03:47:43;99240.03;;;3.27;100.00
26807;BME280;14380;49.910;6.792;2023-04-10T03:50:10;99245.59;;;3.08;100.00
26807;BME280;14380;49.910;6.792;2023-04-10T03:52:37;99242.25;;;2.98;100.00
26807;BME280;14380;49.910;6.792;2023-04-10T03:55:04;99246.16;;;2.73;100.00
26807;BME280;14380;49.910;6.792;2023-04-10T03:57:31;99238.91;;;2.92;100.00
26807;BME280;14380;49.910;6.792;2023-04-10T03:59:59;99243.28;;;2.88;100.00
26807;BME280;14380;49.910;6.792;2023-04-10T04:02:25;99240.47;;;3.01;100.00
26807;BME280;14380;49.910;6.792;2023-04-10T04:04:51;99232.75;;;2.96;100.00
26807;BME280;14380;49.910;6.792;2023-04-10T04:07:18;99233.78;;;2.86;100.00
26807;BME280;14380;49.910;6.792;2023-04-10T04:09:45;99232.09;;;2.83;100.00
26807;BME280;14380;49.910;6.792;2023-04-10T04:12:12;99230.13;;;2.96;100.00
26807;BME280;14380;49.910;6.792;2023-04-10T04:14:38;99229.31;;;2.94;100.00
26807;BME280;14380;49.910;6.792;2023-04-10T04:17:06;99228.38;;;2.96;100.00
26807;BME280;14380;49.910;6.792;2023-04-10T04:19:32;99236.66;;;2.68;100.00
26807;BME280;14380;49.910;6.792;2023-04-10T04:21:59;99236.38;;;2.86;100.00
26807;BME280;14380;49.910;6.792;2023-04-10T04:24:26;99233.72;;;2.89;100.00
26807;BME280;14380;49.910;6.792;2023-04-10T04:26:52;99232.66;;;3.01;100.00
26807;BME280;14380;49.910;6.792;2023-04-10T04:29:19;99238.75;;;3.01;100.00
26807;BME280;14380;49.910;6.792;2023-04-10T04:31:45;99230.84;;;3.06;100.00
26807;BME280;14380;49.910;6.792;2023-04-10T04:34:13;99237.75;;;3.08;100.00
26807;BME280;14380;49.910;6.792;2023-04-10T04:36:40;99237.03;;;3.00;100.00
26807;BME280;14380;49.910;6.792;2023-04-10T04:39:07;99242.28;;;2.97;100.00
26807;BME280;14380;49.910;6.792;2023-04-10T04:41:35;99243.97;;;3.00;100.00
26807;BME280;14380;49.910;6.792;2023-04-10T04:44:03;99246.69;;;2.93;100.00
26807;BME280;14380;49.910;6.792;2023-04-10T04:46:29;99242.19;;;3.02;100.00
26807;BME280;14380;49.910;6.792;2023-04-10T04:48:56;99242.34;;;2.94;100.00
26807;BME280;14380;49.910;6.792;2023-04-10T04:51:24;99242.16;;;3.06;100.00
26807;BME280;14380;49.910;6.792;2023-04-10T04:53:51;99244.16;;;2.89;100.00
26807;BME280;14380;49.910;6.792;2023-04-10T04:56:17;99249.34;;;2.90;100.00
26807;BME280;14380;49.910;6.792;2023-04-10T04:58:44;99256.13;;;3.02;100.00
26807;BME280;14380;49.910;6.792;2023-04-10T05:01:10;99251.94;;;2.90;100.00
26807;BME280;14380;49.910;6.792;2023-04-10T05:03:37;99253.88;;;2.79;100.00
26807;BME280;14380;49.910;6.792;2023-04-10T05:06:03;99246.84;;;2.82;100.00
26807;BME280;14380;49.910;6.792;2023-04-10T05:08:31;99247.22;;;2.61;100.00
26807;BME280;14380;49.910;6.792;2023-04-10T05:10:58;99248.31;;;2.44;100.00
26807;BME280;14380;49.910;6.792;2023-04-10T05:13:24;99245.56;;;2.52;100.00
26807;BME280;14380;49.910;6.792;2023-04-10T05:15:51;99253.44;;;2.49;100.00
26807;BME280;14380;49.910;6.792;2023-04-10T05:18:17;99245.25;;;2.74;100.00
26807;BME280;14380;49.910;6.792;2023-04-10T05:20:48;99250.38;;;2.80;100.00
26807;BME280;14380;49.910;6.792;2023-04-10T05:23:15;99252.72;;;2.97;100.00
26807;BME280;14380;49.910;6.792;2023-04-10T05:25:42;99247.63;;;2.89;100.00
26807;BME280;14380;49.910;6.792;2023-04-10T05:28:09;99254.72;;;2.81;100.00
26807;BME280;14380;49.910;6.792;2023-04-10T05:30:36;99252.59;;;3.05;100.00
26807;BME280;14380;49.910;6.792;2023-04-10T05:33:02;99255.38;;;2.94;100.00
26807;BME280;14380;49.910;6.792;2023-04-10T05:35:29;99255.00;;;3.17;100.00
26807;BME280;14380;49.910;6.792;2023-04-10T05:37:55;99253.34;;;3.11;100.00
26807;BME280;14380;49.910;6.792;2023-04-10T05:40:23;99250.31;;;3.35;100.00
26807;BME280;14380;49.910;6.792;2023-04-10T05:42:51;99262.50;;;3.36;100.00
26807;BME280;14380;49.910;6.792;2023-04-10T05:45:18;99260.31;;;3.11;100.00
26807;BME280;14380;49.910;6.792;2023-04-10T05:47:45;99261.56;;;3.40;100.00
26807;BME280;14380;49.910;6.792;2023-04-10T05:50:11;99259.63;;;3.51;100.00
26807;BME280;14380;49.910;6.792;2023-04-10T05:52:38;99260.28;;;3.61;100.00
26807;BME280;14380;49.910;6.792;2023-04-10T05:55:06;99257.06;;;3.95;100.00
26807;BME280;14380;49.910;6.792;2023-04-10T05:57:32;99258.41;;;3.69;100.00
26807;BME280;14380;49.910;6.792;2023-04-10T06:00:00;99261.56;;;3.85;100.00
26807;BME280;14380;49.910;6.792;2023-04-10T06:02:27;99263.28;;;3.88;100.00
26807;BME280;14380;49.910;6.792;2023-04-10T06:04:54;99260.16;;;4.13;100.00
26807;BME280;14380;49.910;6.792;2023-04-10T06:07:21;99260.16;;;4.14;100.00
26807;BME280;14380;49.910;6.792;2023-04-10T06:09:47;99271.13;;;4.30;100.00
26807;BME280;14380;49.910;6.792;2023-04-10T06:12:14;99258.53;;;4.48;100.00
26807;BME280;14380;49.910;6.792;2023-04-10T06:14:40;99272.34;;;4.55;100.00
26807;BME280;14380;49.910;6.792;2023-04-10T06:17:08;99257.44;;;4.96;100.00
26807;BME280;14380;49.910;6.792;2023-04-10T06:19:35;99248.06;;;5.22;100.00
26807;BME280;14380;49.910;6.792;2023-04-10T06:22:01;99245.66;;;6.12;100.00
26807;BME280;14380;49.910;6.792;2023-04-10T06:24:28;99248.03;;;5.90;100.00
26807;BME280;14380;49.910;6.792;2023-04-10T06:26:55;99250.38;;;5.68;100.00
26807;BME280;14380;49.910;6.792;2023-04-10T06:29:22;99244.91;;;6.38;100.00
26807;BME280;14380;49.910;6.792;2023-04-10T06:31:48;99244.56;;;6.49;100.00
26807;BME280;14380;49.910;6.792;2023-04-10T06:34:16;99246.28;;;6.50;100.00
26807;BME280;14380;49.910;6.792;2023-04-10T06:36:42;99235.13;;;6.72;100.00
26807;BME280;14380;49.910;6.792;2023-04-10T06:39:09;99235.59;;;6.57;100.00
26807;BME280;14380;49.910;6.792;2023-04-10T06:41:35;99234.03;;;6.79;100.00
26807;BME280;14380;49.910;6.792;2023-04-10T06:44:02;99227.81;;;7.34;100.00
26807;BME280;14380;49.910;6.792;2023-04-10T06:46:28;99229.25;;;7.44;100.00
26807;BME280;14380;49.910;6.792;2023-04-10T06:48:55;99231.44;;;7.57;100.00
26807;BME280;14380;49.910;6.792;2023-04-10T06:51:22;99228.03;;;7.79;100.00
26807;BME280;14380;49.910;6.792;2023-04-10T06:53:49;99224.59;;;8.24;100.00
26807;BME280;14380;49.910;6.792;2023-04-10T06:56:15;99226.72;;;8.38;100.00
26807;BME280;14380;49.910;6.792;2023-04-10T06:58:42;99221.41;;;9.06;100.00
26807;BME280;14380;49.910;6.792;2023-04-10T07:01:08;99227.47;;;9.08;100.00
26807;BME280;14380;49.910;6.792;2023-04-10T07:03:35;99217.41;;;9.39;100.00
26807;BME280;14380;49.910;6.792;2023-04-10T07:06:01;99231.69;;;9.33;99.66
26807;BME280;14380;49.910;6.792;2023-04-10T07:08:29;99218.75;;;10.08;100.00
26807;BME280;14380;49.910;6.792;2023-04-10T07:10:56;99207.53;;;10.03;100.00
26807;BME280;14380;49.910;6.792;2023-04-10T07:13:22;99217.81;;;10.29;100.00
26807;BME280;14380;49.910;6.792;2023-04-10T07:15:49;99219.38;;;10.33;95.86
26807;BME280;14380;49.910;6.792;2023-04-10T07:18:15;99221.03;;;10.35;96.65
26807;BME280;14380;49.910;6.792;2023-04-10T07:20:42;99210.00;;;10.46;92.16
26807;BME280;14380;49.910;6.792;2023-04-10T07:23:08;99209.06;;;10.47;92.29
26807;BME280;14380;49.910;6.792;2023-04-10T07:25:36;99207.72;;;10.75;91.78
26807;BME280;14380;49.910;6.792;2023-04-10T07:28:03;99202.53;;;10.74;89.15
26807;BME280;14380;49.910;6.792;2023-04-10T07:30:30;99204.41;;;10.71;84.74
26807;BME280;14380;49.910;6.792;2023-04-10T07:32:56;99207.97;;;10.88;86.73
26807;BME280;14380;49.910;6.792;2023-04-10T07:35:22;99192.59;;;10.79;83.51
26807;BME280;14380;49.910;6.792;2023-04-10T07:37:49;99203.09;;;10.80;80.12
26807;BME280;14380;49.910;6.792;2023-04-10T07:40:16;99198.53;;;10.65;75.08
26807;BME280;14380;49.910;6.792;2023-04-10T07:42:44;99188.97;;;10.99;78.79
26807;BME280;14380;49.910;6.792;2023-04-10T07:45:11;99178.78;;;10.91;76.39
26807;BME280;14380;49.910;6.792;2023-04-10T07:47:38;99185.22;;;11.38;77.63
26807;BME280;14380;49.910;6.792;2023-04-10T07:50:07;99189.06;;;11.66;75.05
26807;BME280;14380;49.910;6.792;2023-04-10T07:52:34;99187.28;;;11.67;79.86
26807;BME280;14380;49.910;6.792;2023-04-10T07:55:01;99180.47;;;11.45;79.53
26807;BME280;14380;49.910;6.792;2023-04-10T07:57:27;99176.75;;;11.99;77.19
26807;BME280;14380;49.910;6.792;2023-04-10T07:59:56;99175.25;;;12.27;78.36
26807;BME280;14380;49.910;6.792;2023-04-10T08:02:22;99176.88;;;12.45;75.35
26807;BME280;14380;49.910;6.792;2023-04-10T08:04:48;99172.97;;;12.53;74.89
26807;BME280;14380;49.910;6.792;2023-04-10T08:07:15;99165.78;;;12.55;70.57
26807;BME280;14380;49.910;6.792;2023-04-10T08:09:42;99167.97;;;12.62;68.57
26807;BME280;14380;49.910;6.792;2023-04-10T08:12:08;99171.59;;;12.92;74.22
26807;BME280;14380;49.910;6.792;2023-04-10T08:14:35;99161.44;;;12.84;70.69
26807;BME280;14380;49.910;6.792;2023-04-10T08:17:03;99158.88;;;13.13;69.34
26807;BME280;14380;49.910;6.792;2023-04-10T08:19:29;99153.31;;;13.32;71.26
26807;BME280;14380;49.910;6.792;2023-04-10T08:21:56;99157.38;;;13.23;69.62
26807;BME280;14380;49.910;6.792;2023-04-10T08:24:22;99160.41;;;12.87;67.88
26807;BME280;14380;49.910;6.792;2023-04-10T08:26:48;99159.47;;;13.33;67.46
26807;BME280;14380;49.910;6.792;2023-04-10T08:29:15;99150.16;;;13.71;69.04
26807;BME280;14380;49.910;6.792;2023-04-10T08:31:41;99147.13;;;13.77;65.55
26807;BME280;14380;49.910;6.792;2023-04-10T08:34:09;99147.75;;;14.09;67.51
26807;BME280;14380;49.910;6.792;2023-04-10T08:36:36;99140.31;;;14.15;66.62
26807;BME280;14380;49.910;6.792;2023-04-10T08:39:02;99141.00;;;14.46;66.52
26807;BME280;14380;49.910;6.792;2023-04-10T08:41:29;99128.16;;;14.80;64.07
26807;BME280;14380;49.910;6.792;2023-04-10T08:43:55;99126.25;;;14.82;63.73
26807;BME280;14380;49.910;6.792;2023-04-10T08:46:22;99120.63;;;14.86;62.26
26807;BME280;14380;49.910;6.792;2023-04-10T08:48:52;99119.03;;;14.56;61.79
26807;BME280;14380;49.910;6.792;2023-04-10T08:51:25;99113.94;;;15.07;65.55
26807;BME280;14380;49.910;6.792;2023-04-10T08:53:57;99114.16;;;14.91;60.44
26807;BME280;14380;49.910;6.792;2023-04-10T08:56:24;99110.34;;;15.08;62.51
26807;BME280;14380;49.910;6.792;2023-04-10T08:58:51;99107.03;;;14.91;63.65
26807;BME280;14380;49.910;6.792;2023-04-10T09:01:19;99105.63;;;14.85;62.47
26807;BME280;14380;49.910;6.792;2023-04-10T09:03:47;99103.56;;;15.29;61.17
26807;BME280;14380;49.910;6.792;2023-04-10T09:06:13;99107.13;;;15.02;61.48
26807;BME280;14380;49.910;6.792;2023-04-10T09:08:41;99096.50;;;14.90;60.82
26807;BME280;14380;49.910;6.792;2023-04-10T09:11:08;99096.00;;;15.36;59.85
26807;BME280;14380;49.910;6.792;2023-04-10T09:13:37;99093.63;;;15.57;61.44
26807;BME280;14380;49.910;6.792;2023-04-10T09:16:04;99081.91;;;15.47;59.01
26807;BME280;14380;49.910;6.792;2023-04-10T09:18:45;99073.66;;;15.39;59.63
26807;BME280;14380;49.910;6.792;2023-04-10T09:21:14;99074.69;;;15.36;58.75
26807;BME280;14380;49.910;6.792;2023-04-10T09:23:43;99069.88;;;15.54;59.23
26807;BME280;14380;49.910;6.792;2023-04-10T09:26:24;99063.81;;;15.65;57.72
26807;BME280;14380;49.910;6.792;2023-04-10T09:29:01;99059.81;;;15.84;58.29
26807;BME280;14380;49.910;6.792;2023-04-10T09:31:32;99061.19;;;16.27;59.23
26807;BME280;14380;49.910;6.792;2023-04-10T09:34:11;99050.34;;;15.93;60.10
26807;BME280;14380;49.910;6.792;2023-04-10T09:36:37;99047.13;;;16.60;58.87
26807;BME280;14380;49.910;6.792;2023-04-10T09:39:07;99048.03;;;16.37;57.37
26807;BME280;14380;49.910;6.792;2023-04-10T09:41:33;99048.38;;;16.08;58.15
26807;BME280;14380;49.910;6.792;2023-04-10T09:44:07;99051.53;;;15.88;57.99
26807;BME280;14380;49.910;6.792;2023-04-10T09:46:34;99043.75;;;16.34;57.58
26807;BME280;14380;49.910;6.792;2023-04-10T09:49:00;99054.13;;;15.64;57.85
26807;BME280;14380;49.910;6.792;2023-04-10T09:51:30;99048.38;;;16.68;57.42
26807;BME280;14380;49.910;6.792;2023-04-10T09:53:58;99049.78;;;16.25;59.02
26807;BME280;14380;49.910;6.792;2023-04-10T09:56:27;99044.28;;;16.39;55.50
26807;BME280;14380;49.910;6.792;2023-04-10T09:58:56;99046.91;;;16.99;57.10
26807;BME280;14380;49.910;6.792;2023-04-10T10:01:24;99042.69;;;16.84;53.24
26807;BME280;14380;49.910;6.792;2023-04-10T10:03:53;99035.91;;;16.32;55.88
26807;BME280;14380;49.910;6.792;2023-04-10T10:06:20;99039.81;;;16.87;53.45
26807;BME280;14380;49.910;6.792;2023-04-10T10:08:47;99030.31;;;17.18;53.72
26807;BME280;14380;49.910;6.792;2023-04-10T10:11:17;99035.56;;;16.84;53.20
26807;BME280;14380;49.910;6.792;2023-04-10T10:13:48;99030.44;;;17.17;55.61
26807;BME280;14380;49.910;6.792;2023-04-10T10:16:19;99035.91;;;16.79;55.09
26807;BME280;14380;49.910;6.792;2023-04-10T10:18:50;99028.88;;;16.67;53.94
26807;BME280;14380;49.910;6.792;2023-04-10T10:21:19;99019.09;;;16.90;54.21
26807;BME280;14380;49.910;6.792;2023-04-10T10:23:47;99022.00;;;16.87;55.17
26807;BME280;14380;49.910;6.792;2023-04-10T10:26:18;99022.56;;;16.79;55.14
26807;BME280;14380;49.910;6.792;2023-04-10T10:28:49;99013.03;;;16.88;52.89
26807;BME280;14380;49.910;6.792;2023-04-10T10:31:17;99003.66;;;16.83;53.29
26807;BME280;14380;49.910;6.792;2023-04-10T10:33:44;99006.91;;;17.22;55.44
26807;BME280;14380;49.910;6.792;2023-04-10T10:36:12;99009.44;;;17.23;56.38
26807;BME280;14380;49.910;6.792;2023-04-10T10:41:33;98993.78;;;17.30;52.56
26807;BME280;14380;49.910;6.792;2023-04-10T10:44:10;98988.09;;;17.35;53.14
26807;BME280;14380;49.910;6.792;2023-04-10T10:46:43;98976.91;;;17.52;50.83
26807;BME280;14380;49.910;6.792;2023-04-10T10:49:12;98964.06;;;18.02;52.81
26807;BME280;14380;49.910;6.792;2023-04-10T10:51:44;98964.72;;;18.36;55.78
26807;BME280;14380;49.910;6.792;2023-04-10T10:54:30;98960.19;;;18.48;54.11
26807;BME280;14380;49.910;6.792;2023-04-10T10:56:57;98958.53;;;18.57;53.33
26807;BME280;14380;49.910;6.792;2023-04-10T10:59:56;98953.28;;;18.77;51.66
26807;BME280;14380;49.910;6.792;2023-04-10T11:02:23;98948.78;;;18.98;52.90
26807;BME280;14380;49.910;6.792;2023-04-10T11:04:49;98950.94;;;18.31;48.97
26807;BME280;14380;49.910;6.792;2023-04-10T11:07:16;98937.72;;;18.18;49.25
26807;BME280;14380;49.910;6.792;2023-04-10T11:09:48;98929.66;;;18.08;49.07
26807;BME280;14380;49.910;6.792;2023-04-10T11:12:14;98930.31;;;17.89;53.47
26807;BME280;14380;49.910;6.792;2023-04-10T11:14:42;98930.94;;;18.14;52.31
26807;BME280;14380;49.910;6.792;2023-04-10T11:17:11;98928.19;;;18.68;51.10
26807;BME280;14380;49.910;6.792;2023-04-10T11:19:57;98937.13;;;18.99;48.94
26807;BME280;14380;49.910;6.792;2023-04-10T11:22:25;98921.72;;;18.92;48.63
26807;BME280;14380;49.910;6.792;2023-04-10T11:24:53;98911.00;;;18.92;52.10
26807;BME280;14380;49.910;6.792;2023-04-10T11:27:40;98901.09;;;18.51;48.24
26807;BME280;14380;49.910;6.792;2023-04-10T11:30:25;98911.97;;;18.38;47.35
26807;BME280;14380;49.910;6.792;2023-04-10T11:32:54;98911.53;;;18.33;47.54
26807;BME280;14380;49.910;6.792;2023-04-10T11:35:21;98902.25;;;18.37;47.42
26807;BME280;14380;49.910;6.792;2023-04-10T11:37:48;98905.13;;;18.46;50.15
26807;BME280;14380;49.910;6.792;2023-04-10T11:40:14;98890.72;;;18.58;51.48
26807;BME280;14380;49.910;6.792;2023-04-10T11:42:41;98895.56;;;18.43;48.29
26807;BME280;14380;49.910;6.792;2023-04-10T11:45:24;98892.94;;;17.78;51.71
26807;BME280;14380;49.910;6.792;2023-04-10T11:47:51;98901.22;;;18.50;51.38
26807;BME280;14380;49.910;6.792;2023-04-10T11:50:19;98907.25;;;18.21;51.23
26807;BME280;14380;49.910;6.792;2023-04-10T11:52:46;98900.44;;;18.59;49.74
26807;BME280;14380;49.910;6.792;2023-04-10T11:55:13;98898.53;;;18.81;50.97
26807;BME280;14380;49.910;6.792;2023-04-10T11:57:40;98908.88;;;18.54;49.13
26807;BME280;14380;49.910;6.792;2023-04-10T12:00:08;98905.84;;;18.48;50.47
26807;BME280;14380;49.910;6.792;2023-04-10T12:02:34;98906.38;;;17.99;49.42
26807;BME280;14380;49.910;6.792;2023-04-10T12:05:13;98902.88;;;17.87;49.30
26807;BME280;14380;49.910;6.792;2023-04-10T12:07:41;98897.84;;;18.05;48.39
26807;BME280;14380;49.910;6.792;2023-04-10T12:10:08;98900.16;;;18.10;49.30
26807;BME280;14380;49.910;6.792;2023-04-10T12:12:35;98892.44;;;17.84;49.47
26807;BME280;14380;49.910;6.792;2023-04-10T12:15:03;98889.88;;;18.15;50.80
26807;BME280;14380;49.910;6.792;2023-04-10T12:17:48;98876.78;;;18.54;50.77
26807;BME280;14380;49.910;6.792;2023-04-10T12:20:15;98873.72;;;18.69;51.45
26807;BME280;14380;49.910;6.792;2023-04-10T12:22:43;98879.84;;;18.50;51.39
26807;BME280;14380;49.910;6.792;2023-04-10T12:25:11;98873.34;;;18.73;49.51
26807;BME280;14380;49.910;6.792;2023-04-10T12:27:37;98874.34;;;19.23;50.86
26807;BME280;14380;49.910;6.792;2023-04-10T12:30:06;98882.25;;;18.32;49.35
26807;BME280;14380;49.910;6.792;2023-04-10T12:32:33;98875.75;;;18.24;49.47
26807;BME280;14380;49.910;6.792;2023-04-10T12:34:59;98869.81;;;18.42;50.50
26807;BME280;14380;49.910;6.792;2023-04-10T12:37:49;98873.69;;;18.07;48.48
26807;BME280;14380;49.910;6.792;2023-04-10T12:40:16;98868.13;;;18.20;49.29
26807;BME280;14380;49.910;6.792;2023-04-10T12:42:44;98863.00;;;18.59;51.76
26807;BME280;14380;49.910;6.792;2023-04-10T12:45:11;98864.81;;;18.58;50.89
26807;BME280;14380;49.910;6.792;2023-04-10T12:47:43;98848.75;;;18.90;49.82
26807;BME280;14380;49.910;6.792;2023-04-10T12:50:12;98853.06;;;18.81;50.37
26807;BME280;14380;49.910;6.792;2023-04-10T12:52:41;98864.50;;;18.00;49.62
26807;BME280;14380;49.910;6.792;2023-04-10T12:55:14;98855.50;;;18.22;52.09
26807;BME280;14380;49.910;6.792;2023-04-10T12:57:41;98861.16;;;18.60;53.25
26807;BME280;14380;49.910;6.792;2023-04-10T13:00:09;98856.06;;;18.25;50.01
26807;BME280;14380;49.910;6.792;2023-04-10T13:02:37;98855.31;;;18.45;51.20
26807;BME280;14380;49.910;6.792;2023-04-10T13:05:04;98834.38;;;18.50;50.59
26807;BME280;14380;49.910;6.792;2023-04-10T13:07:32;98837.44;;;18.76;51.93
26807;BME280;14380;49.910;6.792;2023-04-10T13:09:58;98828.97;;;18.71;52.29